sensor_id;sensor_type;location;lat;lon;timestamp;temperature;humidity
9437;DHT22;4757;59.334;18.034;2023-05-03T00:02:24;6.60;99.90
9437;DHT22;4757;59.334;18.034;2023-05-03T00:04:52;6.50;99.90
9437;DHT22;4757;59.334;18.034;2023-05-03T00:07:20;6.50;99.90
9437;DHT22;4757;59.334;18.034;2023-05-03T00:09:48;6.50;99.90
9437;DHT22;4757;59.334;18.034;2023-05-03T00:12:15;6.40;99.90
9437;DHT22;4757;59.334;18.034;2023-05-03T00:14:44;6.40;99.90
9437;DHT22;4757;59.334;18.034;2023-05-03T00:17:11;6.40;99.90
9437;DHT22;4757;59.334;18.034;2023-05-03T00:19:38;6.50;99.90
9437;DHT22;4757;59.334;18.034;2023-05-03T00:22:06;6.40;99.90
9437;DHT22;4757;59.334;18.034;2023-05-03T00:24:33;6.40;99.90
9437;DHT22;4757;59.334;18.034;2023-05-03T00:27:03;6.30;99.90
9437;DHT22;4757;59.334;18.034;2023-05-03T00:29:30;6.30;99.90
9437;DHT22;4757;59.334;18.034;2023-05-03T00:31:57;6.30;99.90
9437;DHT22;4757;59.334;18.034;2023-05-03T00:34:25;6.30;99.90
9437;DHT22;4757;59.334;18.034;2023-05-03T00:36:52;6.30;99.90
9437;DHT22;4757;59.334;18.034;2023-05-03T00:39:19;6.20;99.90
9437;DHT22;4757;59.334;18.034;2023-05-03T00:41:46;6.20;99.90
9437;DHT22;4757;59.334;18.034;2023-05-03T00:44:13;6.20;99.90
9437;DHT22;4757;59.334;18.034;2023-05-03T00:46:40;6.20;99.90
9437;DHT22;4757;59.334;18.034;2023-05-03T00:49:07;6.20;99.90
9437;DHT22;4757;59.334;18.034;2023-05-03T00:51:34;6.20;99.90
9437;DHT22;4757;59.334;18.034;2023-05-03T00:54:01;6.20;99.90
9437;DHT22;4757;59.334;18.034;2023-05-03T00:56:29;6.10;99.90
9437;DHT22;4757;59.334;18.034;2023-05-03T00:59:04;6.10;99.90
9437;DHT22;4757;59.334;18.034;2023-05-03T01:01:32;6.00;99.90
9437;DHT22;4757;59.334;18.034;2023-05-03T01:04:03;6.00;99.90
9437;DHT22;4757;59.334;18.034;2023-05-03T01:09:16;6.00;99.90
9437;DHT22;4757;59.334;18.034;2023-05-03T01:17:12;6.00;99.90
9437;DHT22;4757;59.334;18.034;2023-05-03T01:19:53;6.00;99.90
9437;DHT22;4757;59.334;18.034;2023-05-03T01:25:14;6.00;99.90
9437;DHT22;4757;59.334;18.034;2023-05-03T01:27:42;6.00;99.90
9437;DHT22;4757;59.334;18.034;2023-05-03T01:30:11;6.00;99.90
9437;DHT22;4757;59.334;18.034;2023-05-03T01:35:36;5.90;99.90
9437;DHT22;4757;59.334;18.034;2023-05-03T01:38:05;5.90;99.90
9437;DHT22;4757;59.334;18.034;2023-05-03T01:40:41;5.90;99.90
9437;DHT22;4757;59.334;18.034;2023-05-03T01:43:11;5.80;99.90
9437;DHT22;4757;59.334;18.034;2023-05-03T01:45:39;5.80;99.90
9437;DHT22;4757;59.334;18.034;2023-05-03T01:48:12;5.80;99.90
9437;DHT22;4757;59.334;18.034;2023-05-03T01:50:39;5.80;99.90
9437;DHT22;4757;59.334;18.034;2023-05-03T01:53:06;5.80;99.90
9437;DHT22;4757;59.334;18.034;2023-05-03T01:55:33;5.70;99.90
9437;DHT22;4757;59.334;18.034;2023-05-03T01:58:00;5.70;99.90
9437;DHT22;4757;59.334;18.034;2023-05-03T02:00:27;5.80;99.90
9437;DHT22;4757;59.334;18.034;2023-05-03T02:02:54;5.80;99.90
9437;DHT22;4757;59.334;18.034;2023-05-03T02:05:22;5.70;99.90
9437;DHT22;4757;59.334;18.034;2023-05-03T02:07:49;5.70;99.90
9437;DHT22;4757;59.334;18.034;2023-05-03T02:10:16;5.70;99.90
9437;DHT22;4757;59.334;18.034;2023-05-03T02:12:44;5.60;99.90
9437;DHT22;4757;59.334;18.034;2023-05-03T02:15:11;5.60;99.90
9437;DHT22;4757;59.334;18.034;2023-05-03T02:17:40;5.50;99.90
9437;DHT22;4757;59.334;18.034;2023-05-03T02:20:08;5.60;99.90
9437;DHT22;4757;59.334;18.034;2023-05-03T02:22:38;5.50;99.90
9437;DHT22;4757;59.334;18.034;2023-05-03T02:25:05;5.50;99.90
9437;DHT22;4757;59.334;18.034;2023-05-03T02:27:33;5.50;99.90
9437;DHT22;4757;59.334;18.034;2023-05-03T02:30:00;5.50;99.90
9437;DHT22;4757;59.334;18.034;2023-05-03T02:32:27;5.50;99.90
9437;DHT22;4757;59.334;18.034;2023-05-03T02:34:54;5.50;99.90
9437;DHT22;4757;59.334;18.034;2023-05-03T02:37:21;5.50;99.90
9437;DHT22;4757;59.334;18.034;2023-05-03T02:39:48;5.50;99.90
9437;DHT22;4757;59.334;18.034;2023-05-03T02:42:15;5.50;99.90
9437;DHT22;4757;59.334;18.034;2023-05-03T02:44:42;5.40;99.90
9437;DHT22;4757;59.334;18.034;2023-05-03T02:47:12;5.30;99.90
9437;DHT22;4757;59.334;18.034;2023-05-03T02:49:38;5.40;99.90
9437;DHT22;4757;59.334;18.034;2023-05-03T02:52:05;5.40;99.90
9437;DHT22;4757;59.334;18.034;2023-05-03T02:54:32;5.40;99.90
9437;DHT22;4757;59.334;18.034;2023-05-03T02:56:59;5.40;99.90
9437;DHT22;4757;59.334;18.034;2023-05-03T02:59:27;5.30;99.90
9437;DHT22;4757;59.334;18.034;2023-05-03T03:01:54;5.40;99.90
9437;DHT22;4757;59.334;18.034;2023-05-03T03:04:21;5.40;99.90
9437;DHT22;4757;59.334;18.034;2023-05-03T03:06:49;5.30;99.90
9437;DHT22;4757;59.334;18.034;2023-05-03T03:09:19;5.40;99.90
9437;DHT22;4757;59.334;18.034;2023-05-03T03:11:46;5.40;99.90
9437;DHT22;4757;59.334;18.034;2023-05-03T03:14:13;5.30;99.90
9437;DHT22;4757;59.334;18.034;2023-05-03T03:16:40;5.30;99.90
9437;DHT22;4757;59.334;18.034;2023-05-03T03:19:07;5.30;99.90
9437;DHT22;4757;59.334;18.034;2023-05-03T03:21:34;5.30;99.90
9437;DHT22;4757;59.334;18.034;2023-05-03T03:24:03;5.30;99.90
9437;DHT22;4757;59.334;18.034;2023-05-03T03:26:30;5.30;99.90
9437;DHT22;4757;59.334;18.034;2023-05-03T03:28:57;5.20;99.90
9437;DHT22;4757;59.334;18.034;2023-05-03T03:31:24;5.30;99.90
9437;DHT22;4757;59.334;18.034;2023-05-03T03:33:51;5.20;99.90
9437;DHT22;4757;59.334;18.034;2023-05-03T03:36:18;5.20;99.90
9437;DHT22;4757;59.334;18.034;2023-05-03T03:38:45;5.20;99.90
9437;DHT22;4757;59.334;18.034;2023-05-03T03:41:12;5.20;99.90
9437;DHT22;4757;59.334;18.034;2023-05-03T03:43:39;5.20;99.90
9437;DHT22;4757;59.334;18.034;2023-05-03T03:46:06;5.20;99.90
9437;DHT22;4757;59.334;18.034;2023-05-03T03:48:33;5.20;99.90
9437;DHT22;4757;59.334;18.034;2023-05-03T03:51:00;5.30;99.90
9437;DHT22;4757;59.334;18.034;2023-05-03T03:53:27;5.30;99.90
9437;DHT22;4757;59.334;18.034;2023-05-03T03:55:54;5.20;99.90
9437;DHT22;4757;59.334;18.034;2023-05-03T03:58:22;5.20;99.90
9437;DHT22;4757;59.334;18.034;2023-05-03T04:00:48;5.20;99.90
9437;DHT22;4757;59.334;18.034;2023-05-03T04:03:17;5.30;99.90
9437;DHT22;4757;59.334;18.034;2023-05-03T04:05:44;5.30;99.90
9437;DHT22;4757;59.334;18.034;2023-05-03T04:08:11;5.30;99.90
9437;DHT22;4757;59.334;18.034;2023-05-03T04:10:38;5.30;99.90
9437;DHT22;4757;59.334;18.034;2023-05-03T04:13:05;5.30;99.90
9437;DHT22;4757;59.334;18.034;2023-05-03T04:15:32;5.30;99.90
9437;DHT22;4757;59.334;18.034;2023-05-03T04:17:59;5.40;99.90
9437;DHT22;4757;59.334;18.034;2023-05-03T04:20:26;5.30;99.90
9437;DHT22;4757;59.334;18.034;2023-05-03T04:22:53;5.40;99.90
9437;DHT22;4757;59.334;18.034;2023-05-03T04:25:20;5.40;99.90
9437;DHT22;4757;59.334;18.034;2023-05-03T04:27:47;5.50;99.90
9437;DHT22;4757;59.334;18.034;2023-05-03T04:30:14;5.50;99.90
9437;DHT22;4757;59.334;18.034;2023-05-03T04:32:43;5.60;99.90
9437;DHT22;4757;59.334;18.034;2023-05-03T04:35:10;5.60;99.90
9437;DHT22;4757;59.334;18.034;2023-05-03T04:37:40;5.60;99.90
9437;DHT22;4757;59.334;18.034;2023-05-03T04:40:08;5.70;99.90
9437;DHT22;4757;59.334;18.034;2023-05-03T04:42:38;5.70;99.90
9437;DHT22;4757;59.334;18.034;2023-05-03T04:45:05;5.70;99.90
9437;DHT22;4757;59.334;18.034;2023-05-03T04:47:35;5.70;99.90
9437;DHT22;4757;59.334;18.034;2023-05-03T04:50:03;5.80;99.90
9437;DHT22;4757;59.334;18.034;2023-05-03T04:52:30;5.80;99.90
9437;DHT22;4757;59.334;18.034;2023-05-03T04:54:57;5.90;99.90
9437;DHT22;4757;59.334;18.034;2023-05-03T04:57:24;5.90;99.90
9437;DHT22;4757;59.334;18.034;2023-05-03T04:59:51;5.90;99.90
9437;DHT22;4757;59.334;18.034;2023-05-03T05:02:19;6.10;99.90
9437;DHT22;4757;59.334;18.034;2023-05-03T05:04:47;6.20;99.90
9437;DHT22;4757;59.334;18.034;2023-05-03T05:07:14;6.20;99.90
9437;DHT22;4757;59.334;18.034;2023-05-03T05:09:42;6.20;99.90
9437;DHT22;4757;59.334;18.034;2023-05-03T05:12:08;6.20;99.90
9437;DHT22;4757;59.334;18.034;2023-05-03T05:14:36;6.30;99.90
9437;DHT22;4757;59.334;18.034;2023-05-03T05:17:03;6.20;99.90
9437;DHT22;4757;59.334;18.034;2023-05-03T05:19:30;6.20;99.90
9437;DHT22;4757;59.334;18.034;2023-05-03T05:21:57;6.20;99.90
9437;DHT22;4757;59.334;18.034;2023-05-03T05:24:24;6.20;99.90
9437;DHT22;4757;59.334;18.034;2023-05-03T05:26:51;6.30;99.90
9437;DHT22;4757;59.334;18.034;2023-05-03T05:29:18;6.40;99.90
9437;DHT22;4757;59.334;18.034;2023-05-03T05:31:45;6.50;99.90
9437;DHT22;4757;59.334;18.034;2023-05-03T05:34:12;6.60;99.90
9437;DHT22;4757;59.334;18.034;2023-05-03T05:36:39;6.70;99.90
9437;DHT22;4757;59.334;18.034;2023-05-03T05:39:06;6.80;99.90
9437;DHT22;4757;59.334;18.034;2023-05-03T05:41:33;7.00;99.90
9437;DHT22;4757;59.334;18.034;2023-05-03T05:44:00;7.10;99.90
9437;DHT22;4757;59.334;18.034;2023-05-03T05:46:27;7.00;99.90
9437;DHT22;4757;59.334;18.034;2023-05-03T05:48:55;7.10;99.90
9437;DHT22;4757;59.334;18.034;2023-05-03T05:51:22;7.20;99.90
9437;DHT22;4757;59.334;18.034;2023-05-03T05:53:49;7.20;99.90
9437;DHT22;4757;59.334;18.034;2023-05-03T05:56:16;7.20;99.90
9437;DHT22;4757;59.334;18.034;2023-05-03T05:58:43;7.30;99.90
9437;DHT22;4757;59.334;18.034;2023-05-03T06:01:10;7.40;99.90
9437;DHT22;4757;59.334;18.034;2023-05-03T06:03:37;7.50;99.90
9437;DHT22;4757;59.334;18.034;2023-05-03T06:06:04;7.40;99.90
9437;DHT22;4757;59.334;18.034;2023-05-03T06:08:31;7.50;99.90
9437;DHT22;4757;59.334;18.034;2023-05-03T06:10:58;7.60;99.90
9437;DHT22;4757;59.334;18.034;2023-05-03T06:13:26;7.70;99.90
9437;DHT22;4757;59.334;18.034;2023-05-03T06:15:53;8.00;99.90
9437;DHT22;4757;59.334;18.034;2023-05-03T06:18:19;7.80;99.90
9437;DHT22;4757;59.334;18.034;2023-05-03T06:20:49;7.90;99.90
9437;DHT22;4757;59.334;18.034;2023-05-03T06:23:17;8.00;99.90
9437;DHT22;4757;59.334;18.034;2023-05-03T06:25:47;7.90;99.90
9437;DHT22;4757;59.334;18.034;2023-05-03T06:28:14;7.90;99.90
9437;DHT22;4757;59.334;18.034;2023-05-03T06:30:41;7.90;99.90
9437;DHT22;4757;59.334;18.034;2023-05-03T06:33:13;8.10;99.90
9437;DHT22;4757;59.334;18.034;2023-05-03T06:35:42;8.60;99.90
9437;DHT22;4757;59.334;18.034;2023-05-03T06:38:09;9.70;99.90
9437;DHT22;4757;59.334;18.034;2023-05-03T06:40:37;9.80;99.90
9437;DHT22;4757;59.334;18.034;2023-05-03T06:43:07;10.30;99.90
9437;DHT22;4757;59.334;18.034;2023-05-03T06:45:35;11.10;99.90
9437;DHT22;4757;59.334;18.034;2023-05-03T06:48:02;10.50;99.90
9437;DHT22;4757;59.334;18.034;2023-05-03T06:50:30;11.40;99.90
9437;DHT22;4757;59.334;18.034;2023-05-03T06:52:57;11.60;99.90
9437;DHT22;4757;59.334;18.034;2023-05-03T06:55:24;12.30;99.90
9437;DHT22;4757;59.334;18.034;2023-05-03T06:57:51;12.80;99.90
9437;DHT22;4757;59.334;18.034;2023-05-03T07:00:20;12.60;99.90
9437;DHT22;4757;59.334;18.034;2023-05-03T07:02:48;12.40;99.90
9437;DHT22;4757;59.334;18.034;2023-05-03T07:05:16;12.50;99.90
9437;DHT22;4757;59.334;18.034;2023-05-03T07:07:43;12.40;99.90
9437;DHT22;4757;59.334;18.034;2023-05-03T07:10:10;12.00;99.90
9437;DHT22;4757;59.334;18.034;2023-05-03T07:12:37;11.60;99.90
9437;DHT22;4757;59.334;18.034;2023-05-03T07:15:04;12.10;99.90
9437;DHT22;4757;59.334;18.034;2023-05-03T07:17:31;12.60;99.90
9437;DHT22;4757;59.334;18.034;2023-05-03T07:19:58;12.40;99.90
9437;DHT22;4757;59.334;18.034;2023-05-03T07:22:26;11.90;99.90
9437;DHT22;4757;59.334;18.034;2023-05-03T07:24:53;11.40;99.90
9437;DHT22;4757;59.334;18.034;2023-05-03T07:27:21;12.00;99.90
9437;DHT22;4757;59.334;18.034;2023-05-03T07:29:48;13.30;99.90
9437;DHT22;4757;59.334;18.034;2023-05-03T07:32:15;12.60;99.90
9437;DHT22;4757;59.334;18.034;2023-05-03T07:34:42;13.10;99.90
9437;DHT22;4757;59.334;18.034;2023-05-03T07:37:09;13.20;99.90
9437;DHT22;4757;59.334;18.034;2023-05-03T07:39:37;13.20;99.90
9437;DHT22;4757;59.334;18.034;2023-05-03T07:42:05;13.00;99.90
9437;DHT22;4757;59.334;18.034;2023-05-03T07:44:32;12.10;99.90
9437;DHT22;4757;59.334;18.034;2023-05-03T07:46:59;13.10;99.90
9437;DHT22;4757;59.334;18.034;2023-05-03T07:49:26;12.90;99.90
9437;DHT22;4757;59.334;18.034;2023-05-03T07:51:53;12.20;99.90
9437;DHT22;4757;59.334;18.034;2023-05-03T07:54:20;12.60;99.90
9437;DHT22;4757;59.334;18.034;2023-05-03T07:56:47;13.30;99.90
9437;DHT22;4757;59.334;18.034;2023-05-03T07:59:14;13.90;99.90
9437;DHT22;4757;59.334;18.034;2023-05-03T08:01:41;13.30;99.90
9437;DHT22;4757;59.334;18.034;2023-05-03T08:04:08;13.10;99.90
9437;DHT22;4757;59.334;18.034;2023-05-03T08:06:36;14.00;99.90
9437;DHT22;4757;59.334;18.034;2023-05-03T08:09:04;13.10;99.90
9437;DHT22;4757;59.334;18.034;2023-05-03T08:11:31;13.50;99.90
9437;DHT22;4757;59.334;18.034;2023-05-03T08:13:59;13.40;99.60
9437;DHT22;4757;59.334;18.034;2023-05-03T08:16:28;13.60;99.90
9437;DHT22;4757;59.334;18.034;2023-05-03T08:18:55;14.40;99.10
9437;DHT22;4757;59.334;18.034;2023-05-03T08:21:22;13.50;99.70
9437;DHT22;4757;59.334;18.034;2023-05-03T08:23:52;12.40;99.90
9437;DHT22;4757;59.334;18.034;2023-05-03T08:26:20;13.90;99.80
9437;DHT22;4757;59.334;18.034;2023-05-03T08:28:47;14.30;98.70
9437;DHT22;4757;59.334;18.034;2023-05-03T08:31:15;13.60;98.80
9437;DHT22;4757;59.334;18.034;2023-05-03T08:33:42;14.00;98.10
9437;DHT22;4757;59.334;18.034;2023-05-03T08:36:09;14.10;98.50
9437;DHT22;4757;59.334;18.034;2023-05-03T08:38:36;13.80;98.80
9437;DHT22;4757;59.334;18.034;2023-05-03T08:41:29;14.20;98.60
9437;DHT22;4757;59.334;18.034;2023-05-03T08:43:58;13.80;99.00
9437;DHT22;4757;59.334;18.034;2023-05-03T08:46:27;14.30;99.00
9437;DHT22;4757;59.334;18.034;2023-05-03T08:48:54;13.70;99.00
9437;DHT22;4757;59.334;18.034;2023-05-03T08:51:22;12.30;99.90
9437;DHT22;4757;59.334;18.034;2023-05-03T08:53:50;13.60;99.30
9437;DHT22;4757;59.334;18.034;2023-05-03T08:56:41;14.70;98.70
9437;DHT22;4757;59.334;18.034;2023-05-03T08:59:09;15.10;98.00
9437;DHT22;4757;59.334;18.034;2023-05-03T09:01:40;15.60;97.40
9437;DHT22;4757;59.334;18.034;2023-05-03T09:04:09;15.80;97.10
9437;DHT22;4757;59.334;18.034;2023-05-03T09:06:40;15.60;97.10
9437;DHT22;4757;59.334;18.034;2023-05-03T09:09:07;16.00;97.00
9437;DHT22;4757;59.334;18.034;2023-05-03T09:11:37;15.00;96.90
9437;DHT22;4757;59.334;18.034;2023-05-03T09:14:14;13.30;98.60
9437;DHT22;4757;59.334;18.034;2023-05-03T09:16:43;14.00;98.40
9437;DHT22;4757;59.334;18.034;2023-05-03T09:19:11;15.00;97.10
9437;DHT22;4757;59.334;18.034;2023-05-03T09:21:40;14.90;96.70
9437;DHT22;4757;59.334;18.034;2023-05-03T09:24:26;14.90;95.60
9437;DHT22;4757;59.334;18.034;2023-05-03T09:26:53;14.80;95.80
9437;DHT22;4757;59.334;18.034;2023-05-03T09:29:29;13.80;97.00
9437;DHT22;4757;59.334;18.034;2023-05-03T09:31:58;14.50;96.20
9437;DHT22;4757;59.334;18.034;2023-05-03T09:34:26;14.90;95.50
9437;DHT22;4757;59.334;18.034;2023-05-03T09:36:53;13.70;96.40
9437;DHT22;4757;59.334;18.034;2023-05-03T09:39:21;15.10;95.90
9437;DHT22;4757;59.334;18.034;2023-05-03T09:41:48;15.20;95.10
9437;DHT22;4757;59.334;18.034;2023-05-03T09:44:18;15.40;95.50
9437;DHT22;4757;59.334;18.034;2023-05-03T09:47:05;15.60;95.00
9437;DHT22;4757;59.334;18.034;2023-05-03T09:49:33;15.20;94.90
9437;DHT22;4757;59.334;18.034;2023-05-03T09:52:00;15.50;95.70
9437;DHT22;4757;59.334;18.034;2023-05-03T09:54:29;15.20;95.80
9437;DHT22;4757;59.334;18.034;2023-05-03T09:57:05;16.10;95.00
9437;DHT22;4757;59.334;18.034;2023-05-03T09:59:33;15.90;94.50
9437;DHT22;4757;59.334;18.034;2023-05-03T10:02:05;15.00;95.10
9437;DHT22;4757;59.334;18.034;2023-05-03T10:04:43;13.50;96.60
9437;DHT22;4757;59.334;18.034;2023-05-03T10:07:16;14.00;96.10
9437;DHT22;4757;59.334;18.034;2023-05-03T10:09:46;15.40;94.20
9437;DHT22;4757;59.334;18.034;2023-05-03T10:12:14;15.50;94.30
9437;DHT22;4757;59.334;18.034;2023-05-03T10:14:48;15.40;94.60
9437;DHT22;4757;59.334;18.034;2023-05-03T10:17:24;13.20;95.70
9437;DHT22;4757;59.334;18.034;2023-05-03T10:20:26;13.60;95.70
9437;DHT22;4757;59.334;18.034;2023-05-03T10:25:31;16.00;93.40
9437;DHT22;4757;59.334;18.034;2023-05-03T10:28:02;16.10;93.00
9437;DHT22;4757;59.334;18.034;2023-05-03T10:30:33;15.30;91.90
9437;DHT22;4757;59.334;18.034;2023-05-03T10:35:42;13.60;94.00
9437;DHT22;4757;59.334;18.034;2023-05-03T10:38:16;13.90;93.90
9437;DHT22;4757;59.334;18.034;2023-05-03T10:40:43;13.80;93.90
9437;DHT22;4757;59.334;18.034;2023-05-03T10:46:03;12.90;95.30
9437;DHT22;4757;59.334;18.034;2023-05-03T10:48:32;12.90;95.60
9437;DHT22;4757;59.334;18.034;2023-05-03T10:51:31;12.80;95.40
9437;DHT22;4757;59.334;18.034;2023-05-03T10:54:02;13.20;95.60
9437;DHT22;4757;59.334;18.034;2023-05-03T10:56:29;13.40;95.60
9437;DHT22;4757;59.334;18.034;2023-05-03T10:58:57;13.40;95.80
9437;DHT22;4757;59.334;18.034;2023-05-03T11:01:26;13.30;95.70
9437;DHT22;4757;59.334;18.034;2023-05-03T11:08:59;14.50;93.40
9437;DHT22;4757;59.334;18.034;2023-05-03T11:11:26;14.70;93.50
9437;DHT22;4757;59.334;18.034;2023-05-03T11:13:53;15.40;93.40
9437;DHT22;4757;59.334;18.034;2023-05-03T11:16:21;15.80;93.20
9437;DHT22;4757;59.334;18.034;2023-05-03T11:18:48;15.00;93.80
9437;DHT22;4757;59.334;18.034;2023-05-03T11:21:17;14.70;94.30
9437;DHT22;4757;59.334;18.034;2023-05-03T11:23:44;15.30;93.80
9437;DHT22;4757;59.334;18.034;2023-05-03T11:26:12;15.60;93.60
9437;DHT22;4757;59.334;18.034;2023-05-03T11:28:41;15.50;93.50
9437;DHT22;4757;59.334;18.034;2023-05-03T11:31:10;15.20;93.60
9437;DHT22;4757;59.334;18.034;2023-05-03T11:33:38;15.00;94.10
9437;DHT22;4757;59.334;18.034;2023-05-03T11:36:06;15.80;92.90
9437;DHT22;4757;59.334;18.034;2023-05-03T11:38:37;15.80;92.90
9437;DHT22;4757;59.334;18.034;2023-05-03T11:41:15;15.20;93.40
9437;DHT22;4757;59.334;18.034;2023-05-03T11:43:44;15.60;93.10
9437;DHT22;4757;59.334;18.034;2023-05-03T11:46:14;13.70;93.80
9437;DHT22;4757;59.334;18.034;2023-05-03T11:48:43;13.30;94.50
9437;DHT22;4757;59.334;18.034;2023-05-03T11:51:11;14.30;94.40
9437;DHT22;4757;59.334;18.034;2023-05-03T11:53:42;14.60;94.10
9437;DHT22;4757;59.334;18.034;2023-05-03T11:56:12;14.10;94.50
9437;DHT22;4757;59.334;18.034;2023-05-03T11:58:54;13.60;94.80
9437;DHT22;4757;59.334;18.034;2023-05-03T12:01:27;13.30;94.90
9437;DHT22;4757;59.334;18.034;2023-05-03T12:04:02;13.90;94.70
9437;DHT22;4757;59.334;18.034;2023-05-03T12:06:33;13.40;94.70
9437;DHT22;4757;59.334;18.034;2023-05-03T12:09:03;13.30;95.10
9437;DHT22;4757;59.334;18.034;2023-05-03T12:11:42;13.20;95.20
9437;DHT22;4757;59.334;18.034;2023-05-03T12:14:13;13.30;94.80
9437;DHT22;4757;59.334;18.034;2023-05-03T12:16:49;13.60;94.80
9437;DHT22;4757;59.334;18.034;2023-05-03T12:19:28;13.90;94.00
9437;DHT22;4757;59.334;18.034;2023-05-03T12:21:59;13.50;94.30
9437;DHT22;4757;59.334;18.034;2023-05-03T12:24:33;13.40;94.10
9437;DHT22;4757;59.334;18.034;2023-05-03T12:27:00;13.50;94.10
9437;DHT22;4757;59.334;18.034;2023-05-03T12:29:38;14.20;93.40
9437;DHT22;4757;59.334;18.034;2023-05-03T12:32:06;13.90;93.20
9437;DHT22;4757;59.334;18.034;2023-05-03T12:34:37;13.80;92.20
9437;DHT22;4757;59.334;18.034;2023-05-03T12:37:07;14.30;92.60
9437;DHT22;4757;59.334;18.034;2023-05-03T12:39:38;14.20;92.40
9437;DHT22;4757;59.334;18.034;2023-05-03T12:42:06;14.50;92.90
9437;DHT22;4757;59.334;18.034;2023-05-03T12:44:37;15.30;93.00
9437;DHT22;4757;59.334;18.034;2023-05-03T12:47:08;14.90;93.00
9437;DHT22;4757;59.334;18.034;2023-05-03T12:49:36;14.40;93.20
9437;DHT22;4757;59.334;18.034;2023-05-03T12:52:04;14.70;92.70
9437;DHT22;4757;59.334;18.034;2023-05-03T12:54:51;14.50;92.50
9437;DHT22;4757;59.334;18.034;2023-05-03T12:57:21;14.20;92.90
9437;DHT22;4757;59.334;18.034;2023-05-03T12:59:50;14.30;93.10
9437;DHT22;4757;59.334;18.034;2023-05-03T13:02:28;13.90;93.30
9437;DHT22;4757;59.334;18.034;2023-05-03T13:04:58;13.40;94.10
9437;DHT22;4757;59.334;18.034;2023-05-03T13:07:38;13.10;95.10
9437;DHT22;4757;59.334;18.034;2023-05-03T13:10:09;13.20;94.90
9437;DHT22;4757;59.334;18.034;2023-05-03T13:12:41;13.10;95.20
9437;DHT22;4757;59.334;18.034;2023-05-03T13:15:08;12.90;95.30
9437;DHT22;4757;59.334;18.034;2023-05-03T13:17:36;13.00;95.40
9437;DHT22;4757;59.334;18.034;2023-05-03T13:20:03;12.60;96.20
9437;DHT22;4757;59.334;18.034;2023-05-03T13:22:33;12.60;96.50
9437;DHT22;4757;59.334;18.034;2023-05-03T13:25:00;12.70;96.50
9437;DHT22;4757;59.334;18.034;2023-05-03T13:27:27;13.00;96.40
9437;DHT22;4757;59.334;18.034;2023-05-03T13:29:54;12.50;96.80
9437;DHT22;4757;59.334;18.034;2023-05-03T13:32:21;12.20;96.60
9437;DHT22;4757;59.334;18.034;2023-05-03T13:34:48;12.60;96.80
9437;DHT22;4757;59.334;18.034;2023-05-03T13:37:16;12.80;96.00
9437;DHT22;4757;59.334;18.034;2023-05-03T13:39:45;13.30;95.50
9437;DHT22;4757;59.334;18.034;2023-05-03T13:42:12;13.90;95.60
9437;DHT22;4757;59.334;18.034;2023-05-03T13:44:39;13.50;95.90
9437;DHT22;4757;59.334;18.034;2023-05-03T13:47:08;13.80;95.80
9437;DHT22;4757;59.334;18.034;2023-05-03T13:49:35;13.20;95.70
9437;DHT22;4757;59.334;18.034;2023-05-03T13:52:02;13.30;96.10
9437;DHT22;4757;59.334;18.034;2023-05-03T13:54:32;13.90;96.00
9437;DHT22;4757;59.334;18.034;2023-05-03T13:57:02;13.70;96.10
9437;DHT22;4757;59.334;18.034;2023-05-03T14:01:58;13.90;95.00
9437;DHT22;4757;59.334;18.034;2023-05-03T14:04:25;14.10;92.90
9437;DHT22;4757;59.334;18.034;2023-05-03T14:06:52;14.00;92.40
9437;DHT22;4757;59.334;18.034;2023-05-03T14:09:19;13.70;93.80
9437;DHT22;4757;59.334;18.034;2023-05-03T14:11:49;11.90;99.50
9437;DHT22;4757;59.334;18.034;2023-05-03T14:14:17;11.20;99.90
9437;DHT22;4757;59.334;18.034;2023-05-03T14:16:44;10.50;99.90
9437;DHT22;4757;59.334;18.034;2023-05-03T14:19:12;10.70;99.90
9437;DHT22;4757;59.334;18.034;2023-05-03T14:21:40;11.10;99.90
9437;DHT22;4757;59.334;18.034;2023-05-03T14:24:08;11.40;99.90
9437;DHT22;4757;59.334;18.034;2023-05-03T14:26:36;11.70;99.90
9437;DHT22;4757;59.334;18.034;2023-05-03T14:29:03;11.40;99.90
9437;DHT22;4757;59.334;18.034;2023-05-03T14:31:32;11.60;99.90
9437;DHT22;4757;59.334;18.034;2023-05-03T14:34:00;11.50;99.90
9437;DHT22;4757;59.334;18.034;2023-05-03T14:36:27;11.40;99.90
9437;DHT22;4757;59.334;18.034;2023-05-03T14:39:01;11.50;99.90
9437;DHT22;4757;59.334;18.034;2023-05-03T14:41:30;11.30;99.90
9437;DHT22;4757;59.334;18.034;2023-05-03T14:43:59;11.00;99.90
9437;DHT22;4757;59.334;18.034;2023-05-03T14:46:26;11.10;99.90
9437;DHT22;4757;59.334;18.034;2023-05-03T14:48:54;11.00;99.90
9437;DHT22;4757;59.334;18.034;2023-05-03T14:51:24;10.80;99.90
9437;DHT22;4757;59.334;18.034;2023-05-03T14:53:51;10.90;99.90
9437;DHT22;4757;59.334;18.034;2023-05-03T14:56:19;10.90;99.90
9437;DHT22;4757;59.334;18.034;2023-05-03T14:58:46;10.80;99.90
9437;DHT22;4757;59.334;18.034;2023-05-03T15:01:19;10.50;99.90
9437;DHT22;4757;59.334;18.034;2023-05-03T15:03:47;10.70;99.90
9437;DHT22;4757;59.334;18.034;2023-05-03T15:06:34;10.70;99.90
9437;DHT22;4757;59.334;18.034;2023-05-03T15:09:04;10.40;99.90
9437;DHT22;4757;59.334;18.034;2023-05-03T15:11:33;10.30;99.90
9437;DHT22;4757;59.334;18.034;2023-05-03T15:14:00;10.90;99.90
9437;DHT22;4757;59.334;18.034;2023-05-03T15:16:28;11.00;99.90
9437;DHT22;4757;59.334;18.034;2023-05-03T15:18:55;10.80;99.90
9437;DHT22;4757;59.334;18.034;2023-05-03T15:21:22;10.40;99.90
9437;DHT22;4757;59.334;18.034;2023-05-03T15:23:50;10.10;99.90
9437;DHT22;4757;59.334;18.034;2023-05-03T15:26:17;10.10;99.90
9437;DHT22;4757;59.334;18.034;2023-05-03T15:28:44;9.90;99.90
9437;DHT22;4757;59.334;18.034;2023-05-03T15:31:12;9.80;99.90
9437;DHT22;4757;59.334;18.034;2023-05-03T15:33:41;10.00;99.90
9437;DHT22;4757;59.334;18.034;2023-05-03T15:36:10;9.70;99.90
9437;DHT22;4757;59.334;18.034;2023-05-03T15:38:39;9.40;99.90
9437;DHT22;4757;59.334;18.034;2023-05-03T15:41:06;9.60;99.90
9437;DHT22;4757;59.334;18.034;2023-05-03T15:43:33;8.50;99.90
9437;DHT22;4757;59.334;18.034;2023-05-03T15:46:01;8.10;99.90
9437;DHT22;4757;59.334;18.034;2023-05-03T15:48:28;8.10;99.90
9437;DHT22;4757;59.334;18.034;2023-05-03T15:50:55;8.40;99.90
9437;DHT22;4757;59.334;18.034;2023-05-03T15:53:22;8.20;99.90
9437;DHT22;4757;59.334;18.034;2023-05-03T15:55:49;8.20;99.90
9437;DHT22;4757;59.334;18.034;2023-05-03T15:58:18;7.70;99.90
9437;DHT22;4757;59.334;18.034;2023-05-03T16:00:45;7.90;99.90
9437;DHT22;4757;59.334;18.034;2023-05-03T16:03:14;7.90;99.90
9437;DHT22;4757;59.334;18.034;2023-05-03T16:05:42;8.00;99.90
9437;DHT22;4757;59.334;18.034;2023-05-03T16:08:09;7.70;99.90
9437;DHT22;4757;59.334;18.034;2023-05-03T16:10:36;7.80;99.90
9437;DHT22;4757;59.334;18.034;2023-05-03T16:13:03;8.20;99.90
9437;DHT22;4757;59.334;18.034;2023-05-03T16:15:30;8.00;99.90
9437;DHT22;4757;59.334;18.034;2023-05-03T16:17:58;7.70;99.90
9437;DHT22;4757;59.334;18.034;2023-05-03T16:20:25;7.60;99.90
9437;DHT22;4757;59.334;18.034;2023-05-03T16:22:52;7.80;99.90
9437;DHT22;4757;59.334;18.034;2023-05-03T16:25:19;7.30;99.90
9437;DHT22;4757;59.334;18.034;2023-05-03T16:27:47;7.20;99.90
9437;DHT22;4757;59.334;18.034;2023-05-03T16:30:14;7.30;99.90
9437;DHT22;4757;59.334;18.034;2023-05-03T16:32:42;7.50;99.90